createdAt,value
2019-02-08T00:01:06.103Z,2.29
2019-02-08T00:07:10.492Z,2.11
2019-02-08T00:09:41.883Z,2.05
2019-02-08T00:12:13.138Z,2.04
2019-02-08T00:14:44.989Z,2.15
2019-02-08T00:17:16.478Z,2.00
2019-02-08T00:19:48.267Z,2.02
2019-02-08T00:22:19.976Z,2.10
2019-02-08T00:24:51.526Z,2.24
2019-02-08T00:27:23.990Z,2.19
2019-02-08T00:29:55.786Z,2.08
2019-02-08T00:32:27.591Z,2.05
2019-02-08T00:34:59.644Z,2.13
2019-02-08T00:37:31.294Z,2.14
2019-02-08T00:40:02.978Z,2.01
2019-02-08T00:42:34.877Z,2.05
2019-02-08T00:45:07.792Z,2.11
2019-02-08T00:47:39.759Z,2.04
2019-02-08T00:50:14.817Z,2.05
2019-02-08T00:52:47.654Z,2.02
2019-02-08T00:55:20.107Z,1.94
2019-02-08T00:57:51.854Z,1.91
2019-02-08T01:00:24.426Z,1.91
2019-02-08T01:02:56.796Z,1.94
2019-02-08T01:05:28.818Z,1.96
2019-02-08T01:08:01.481Z,1.98
2019-02-08T01:10:33.942Z,1.93
2019-02-08T01:13:05.637Z,2.00
2019-02-08T01:15:37.142Z,1.99
2019-02-08T01:18:08.911Z,1.92
2019-02-08T01:20:40.339Z,1.87
2019-02-08T01:23:11.761Z,1.77
2019-02-08T01:25:43.695Z,1.83
2019-02-08T01:28:15.363Z,1.94
2019-02-08T01:30:47.295Z,1.99
2019-02-08T01:33:18.729Z,2.04
2019-02-08T01:35:50.454Z,2.01
2019-02-08T01:38:21.967Z,1.90
2019-02-08T01:40:53.693Z,1.82
2019-02-08T01:43:25.173Z,1.82
2019-02-08T01:45:56.868Z,1.87
2019-02-08T01:48:28.292Z,1.96
2019-02-08T01:51:00.061Z,2.13
2019-02-08T01:53:31.448Z,2.17
2019-02-08T01:56:02.993Z,2.09
2019-02-08T01:58:34.459Z,2.08
2019-02-08T02:01:06.547Z,1.94
2019-02-08T02:03:38.030Z,1.94
2019-02-08T02:06:09.554Z,1.92
2019-02-08T02:08:41.073Z,1.94
2019-02-08T02:11:12.483Z,2.00
2019-02-08T02:13:44.139Z,1.93
2019-02-08T02:16:15.458Z,1.89
2019-02-08T02:18:46.773Z,1.87
2019-02-08T02:21:18.331Z,1.88
2019-02-08T02:23:56.037Z,1.95
2019-02-08T02:26:23.397Z,1.93
2019-02-08T02:28:55.092Z,1.98
2019-02-08T02:31:26.485Z,1.92
2019-02-08T02:33:57.927Z,1.83
2019-02-08T02:36:29.628Z,1.83
2019-02-08T02:39:01.210Z,1.83
2019-02-08T02:41:34.174Z,1.84
2019-02-08T02:44:05.791Z,1.74
2019-02-08T02:46:37.284Z,1.76
2019-02-08T02:49:08.736Z,1.73
2019-02-08T02:51:40.253Z,1.75
2019-02-08T02:54:11.879Z,1.85
2019-02-08T02:56:43.431Z,1.93
2019-02-08T02:59:14.204Z,1.91
2019-02-08T03:01:45.877Z,1.87
2019-02-08T03:04:17.479Z,1.80
2019-02-08T03:06:49.058Z,1.96
2019-02-08T03:09:20.888Z,2.10
2019-02-08T03:11:52.486Z,2.06
2019-02-08T03:14:24.038Z,2.16
2019-02-08T03:16:56.806Z,2.22
2019-02-08T03:19:28.430Z,2.23
2019-02-08T03:22:00.049Z,2.10
2019-02-08T03:24:31.642Z,2.15
2019-02-08T03:27:03.122Z,1.99
2019-02-08T03:29:34.465Z,2.14
2019-02-08T03:32:06.217Z,2.03
2019-02-08T03:34:37.796Z,2.07
2019-02-08T03:37:09.522Z,2.09
2019-02-08T03:39:41.286Z,2.14
2019-02-08T03:42:12.885Z,2.17
2019-02-08T03:44:44.809Z,2.21
2019-02-08T03:47:16.137Z,2.14
2019-02-08T03:49:47.558Z,2.18
2019-02-08T03:52:19.165Z,2.21
2019-02-08T03:54:50.916Z,2.09
2019-02-08T03:57:22.295Z,2.16
2019-02-08T03:59:53.852Z,2.13
2019-02-08T04:02:25.611Z,2.20
2019-02-08T04:04:57.425Z,2.22
2019-02-08T04:07:28.921Z,2.29
2019-02-08T04:10:00.562Z,2.04
2019-02-08T04:12:32.314Z,1.93
2019-02-08T04:15:04.888Z,1.96
2019-02-08T04:17:36.574Z,1.85
2019-02-08T04:20:09.069Z,1.90
2019-02-08T04:22:40.650Z,2.01
2019-02-08T04:25:12.752Z,1.95
2019-02-08T04:27:44.320Z,1.84
2019-02-08T04:30:19.265Z,1.84
2019-02-08T04:32:50.867Z,1.82
2019-02-08T04:35:22.511Z,1.88
2019-02-08T04:37:54.107Z,1.75
2019-02-08T04:40:25.557Z,1.79
2019-02-08T04:42:57.297Z,1.74
2019-02-08T04:45:28.919Z,1.74
2019-02-08T04:48:00.280Z,1.98
2019-02-08T04:50:31.757Z,1.94
2019-02-08T04:53:03.410Z,1.77
2019-02-08T04:55:34.817Z,1.81
2019-02-08T04:58:06.302Z,1.69
2019-02-08T05:00:38.437Z,1.65
2019-02-08T05:03:09.857Z,1.72
2019-02-08T05:05:41.185Z,1.89
2019-02-08T05:08:12.673Z,1.97
2019-02-08T05:10:44.022Z,2.04
2019-02-08T05:13:15.451Z,2.08
2019-02-08T05:15:46.802Z,2.02
2019-02-08T05:18:18.198Z,1.92
2019-02-08T05:20:49.640Z,1.94
2019-02-08T05:23:20.909Z,1.85
2019-02-08T05:25:52.488Z,1.81
2019-02-08T05:28:24.013Z,1.79
2019-02-08T05:30:55.215Z,1.79
2019-02-08T05:33:26.586Z,1.76
2019-02-08T05:35:58.132Z,1.70
2019-02-08T05:38:29.612Z,1.65
2019-02-08T05:41:01.172Z,1.76
2019-02-08T05:43:32.775Z,1.88
2019-02-08T05:46:06.674Z,1.91
2019-02-08T05:48:38.150Z,1.87
2019-02-08T05:51:09.652Z,1.83
2019-02-08T05:53:41.325Z,1.72
2019-02-08T05:56:12.533Z,1.74
2019-02-08T05:58:44.161Z,1.83
2019-02-08T06:01:15.899Z,1.70
2019-02-08T06:03:47.340Z,1.64
2019-02-08T06:06:18.557Z,1.65
2019-02-08T06:08:49.909Z,1.53
2019-02-08T06:11:21.342Z,1.55
2019-02-08T06:13:53.094Z,1.63
2019-02-08T06:16:24.478Z,1.54
2019-02-08T06:18:56.153Z,1.61
2019-02-08T06:21:27.507Z,1.62
2019-02-08T06:23:59.027Z,1.64
2019-02-08T06:26:30.554Z,1.67
2019-02-08T06:29:02.297Z,1.61
2019-02-08T06:31:33.876Z,1.59
2019-02-08T06:34:05.714Z,1.54
2019-02-08T06:36:37.208Z,1.66
2019-02-08T06:39:11.402Z,1.62
2019-02-08T06:41:42.895Z,1.52
2019-02-08T06:44:14.739Z,1.58
2019-02-08T06:46:46.312Z,1.62
2019-02-08T06:49:18.006Z,1.61
2019-02-08T06:51:49.301Z,1.61
2019-02-08T06:54:21.041Z,1.56
2019-02-08T06:57:05.045Z,1.73
2019-02-08T06:59:43.259Z,1.80
2019-02-08T07:02:26.160Z,1.80
2019-02-08T07:05:25.736Z,1.81
2019-02-08T07:08:13.482Z,2.00
2019-02-08T07:10:52.954Z,1.78
2019-02-08T07:13:47.543Z,1.87
2019-02-08T07:16:47.067Z,1.89
2019-02-08T07:19:32.173Z,2.00
2019-02-08T07:22:11.538Z,2.05
2019-02-08T07:25:02.287Z,1.99
2019-02-08T07:27:40.460Z,1.99
2019-02-08T07:30:36.379Z,1.96
2019-02-08T07:33:35.806Z,2.03
2019-02-08T07:36:26.079Z,2.00
2019-02-08T07:39:16.554Z,1.85
2019-02-08T07:41:57.696Z,1.87
2019-02-08T07:44:40.894Z,1.92
2019-02-08T07:47:34.462Z,2.00
2019-02-08T07:50:28.747Z,1.94
2019-02-08T07:53:25.150Z,1.96
2019-02-08T07:56:18.456Z,1.99
2019-02-08T07:59:00.545Z,2.00
2019-02-08T08:01:57.095Z,1.93
2019-02-08T08:04:52.193Z,2.07
2019-02-08T08:07:48.936Z,2.17
2019-02-08T08:10:39.535Z,2.23
2019-02-08T08:13:24.912Z,2.16
2019-02-08T08:16:21.249Z,2.16
2019-02-08T08:19:16.088Z,2.19
2019-02-08T08:21:56.441Z,2.38
2019-02-08T08:24:59.490Z,2.40
2019-02-08T08:27:50.524Z,2.34
2019-02-08T08:30:45.671Z,2.54
2019-02-08T08:33:29.167Z,2.37
2019-02-08T08:36:33.606Z,2.39
2019-02-08T08:39:44.303Z,2.61
2019-02-08T08:42:58.726Z,2.49
2019-02-08T08:46:03.282Z,2.50
2019-02-08T08:49:08.844Z,2.59
2019-02-08T08:52:19.007Z,2.62
2019-02-08T08:55:41.787Z,2.47
2019-02-08T08:58:47.025Z,2.64
2019-02-08T09:01:58.129Z,2.78
2019-02-08T09:05:05.828Z,2.67
2019-02-08T09:08:13.820Z,2.71
2019-02-08T09:11:24.125Z,2.66
2019-02-08T09:14:32.288Z,2.56
2019-02-08T09:17:32.259Z,2.53
2019-02-08T09:20:46.364Z,2.70
2019-02-08T09:23:56.473Z,2.71
2019-02-08T09:27:11.389Z,2.78
2019-02-08T09:30:17.750Z,2.88
2019-02-08T09:33:28.964Z,2.87
2019-02-08T09:36:47.407Z,3.12
2019-02-08T09:39:56.721Z,3.15
2019-02-08T09:43:23.777Z,3.14
2019-02-08T09:46:38.904Z,3.17
2019-02-08T09:49:40.728Z,3.26
2019-02-08T09:52:47.391Z,3.19
2019-02-08T09:55:57.895Z,3.35
2019-02-08T09:59:26.314Z,3.24
2019-02-08T10:02:33.651Z,3.32
2019-02-08T10:05:40.911Z,3.42
2019-02-08T10:09:00.552Z,3.22
2019-02-08T10:12:32.335Z,3.19
2019-02-08T10:15:34.758Z,3.04
2019-02-08T10:18:58.629Z,3.14
2019-02-08T10:21:57.348Z,3.07
2019-02-08T10:25:18.531Z,3.10
2019-02-08T10:28:51.428Z,3.11
2019-02-08T10:31:53.603Z,3.25
2019-02-08T10:35:11.431Z,3.20
2019-02-08T10:38:16.288Z,3.47
2019-02-08T10:41:30.722Z,3.50
2019-02-08T10:44:59.194Z,3.54
2019-02-08T10:48:32.170Z,3.33
2019-02-08T10:51:55.576Z,3.26
2019-02-08T10:55:01.328Z,3.29
2019-02-08T10:58:13.932Z,3.17
2019-02-08T11:01:41.527Z,3.18
2019-02-08T11:05:03.205Z,3.14
2019-02-08T11:08:21.180Z,3.04
2019-02-08T11:11:41.884Z,3.22
2019-02-08T11:14:48.699Z,3.30
2019-02-08T11:18:00.910Z,3.28
2019-02-08T11:20:32.688Z,3.29
2019-02-08T11:23:04.196Z,3.44
2019-02-08T11:25:35.902Z,3.45
2019-02-08T11:28:07.695Z,3.51
2019-02-08T11:30:39.605Z,3.67
2019-02-08T11:33:11.282Z,3.68
2019-02-08T11:35:42.753Z,3.84
2019-02-08T11:38:14.273Z,3.82
2019-02-08T11:40:45.870Z,3.71
2019-02-08T11:43:17.749Z,3.70
2019-02-08T11:45:49.246Z,3.52
2019-02-08T11:51:03.150Z,3.77
2019-02-08T11:53:39.000Z,3.63
2019-02-08T11:56:10.923Z,3.71
2019-02-08T11:58:42.607Z,3.57
2019-02-08T12:01:13.969Z,3.68
2019-02-08T12:03:45.803Z,3.55
2019-02-08T12:06:17.288Z,3.43
2019-02-08T12:08:48.732Z,3.41
2019-02-08T12:11:20.460Z,3.43
2019-02-08T12:13:51.903Z,3.47
2019-02-08T12:16:23.412Z,3.37
2019-02-08T12:18:56.094Z,3.44
2019-02-08T12:21:27.821Z,3.45
2019-02-08T12:23:59.503Z,3.54
2019-02-08T12:26:37.657Z,3.64
2019-02-08T12:29:05.104Z,3.59
2019-02-08T12:31:36.994Z,3.69
2019-02-08T12:34:09.273Z,3.74
2019-02-08T12:36:41.083Z,3.80
2019-02-08T12:39:13.255Z,3.65
2019-02-08T12:41:44.866Z,3.70
2019-02-08T12:44:17.394Z,3.69
2019-02-08T12:46:49.228Z,3.75
2019-02-08T12:49:20.986Z,3.65
2019-02-08T12:51:52.654Z,3.57
2019-02-08T12:54:24.495Z,3.67
2019-02-08T12:56:56.373Z,3.64
2019-02-08T12:59:28.131Z,3.76
2019-02-08T13:01:59.801Z,3.80
2019-02-08T13:04:32.731Z,3.81
2019-02-08T13:07:04.363Z,3.63
2019-02-08T13:09:36.031Z,3.65
2019-02-08T13:12:07.710Z,3.70
2019-02-08T13:14:40.127Z,3.75
2019-02-08T13:17:11.509Z,3.63
2019-02-08T13:19:42.993Z,3.62
2019-02-08T13:22:14.667Z,3.63
2019-02-08T13:24:46.579Z,3.69
2019-02-08T13:27:18.346Z,3.72
2019-02-08T13:29:50.133Z,3.53
2019-02-08T13:32:22.871Z,3.64
2019-02-08T13:34:54.494Z,3.79
2019-02-08T13:37:25.803Z,3.77
2019-02-08T13:39:57.214Z,3.90
2019-02-08T13:42:29.033Z,4.02
2019-02-08T13:45:00.639Z,4.07
2019-02-08T13:47:32.475Z,4.01
2019-02-08T13:50:05.215Z,4.03
2019-02-08T13:52:36.727Z,3.92
2019-02-08T13:55:08.868Z,3.89
2019-02-08T13:57:40.559Z,3.89
2019-02-08T14:00:16.508Z,3.73
2019-02-08T14:02:48.623Z,3.67
2019-02-08T14:05:20.329Z,3.89
2019-02-08T14:07:51.998Z,3.94
2019-02-08T14:10:23.686Z,3.73
2019-02-08T14:12:55.533Z,3.74
2019-02-08T14:15:27.578Z,3.89
2019-02-08T14:17:59.293Z,3.77
2019-02-08T14:20:31.135Z,3.47
2019-02-08T14:23:02.805Z,3.44
2019-02-08T14:25:34.312Z,3.67
2019-02-08T14:28:06.012Z,3.62
2019-02-08T14:30:39.658Z,3.52
2019-02-08T14:33:11.266Z,3.54
2019-02-08T14:35:42.858Z,3.64
2019-02-08T14:38:18.827Z,3.57
2019-02-08T14:40:50.509Z,3.76
2019-02-08T14:43:22.246Z,3.76
2019-02-08T14:45:53.767Z,3.60
2019-02-08T14:48:25.352Z,3.66
2019-02-08T14:50:57.022Z,3.63
2019-02-08T14:53:28.453Z,3.46
2019-02-08T14:56:00.034Z,3.48
2019-02-08T14:58:31.502Z,3.34
2019-02-08T15:01:02.927Z,3.29
2019-02-08T15:03:34.364Z,3.37
2019-02-08T15:06:05.958Z,3.38
2019-02-08T15:08:37.234Z,3.41
2019-02-08T15:11:09.000Z,3.32
2019-02-08T15:13:40.325Z,3.32
2019-02-08T15:16:11.870Z,3.33
2019-02-08T15:18:43.187Z,3.41
2019-02-08T15:21:14.431Z,3.57
2019-02-08T15:23:46.161Z,3.48
2019-02-08T15:26:17.830Z,3.61
2019-02-08T15:28:49.412Z,3.54
2019-02-08T15:31:21.179Z,3.43
2019-02-08T15:33:52.762Z,3.32
2019-02-08T15:36:24.452Z,3.33
2019-02-08T15:38:55.817Z,3.21
2019-02-08T15:41:27.436Z,3.12
2019-02-08T15:43:59.106Z,3.21
2019-02-08T15:46:30.601Z,3.18
2019-02-08T15:49:02.273Z,3.24
2019-02-08T15:51:33.924Z,3.15
2019-02-08T15:54:05.281Z,3.25
2019-02-08T15:56:37.904Z,3.24
2019-02-08T15:59:09.656Z,3.23
2019-02-08T16:01:41.466Z,3.28
2019-02-08T16:04:12.977Z,3.28
2019-02-08T16:06:44.640Z,3.28
2019-02-08T16:09:15.956Z,3.21
2019-02-08T16:11:47.468Z,3.26
2019-02-08T16:14:19.104Z,3.21
2019-02-08T16:16:50.690Z,3.13
2019-02-08T16:19:22.233Z,3.25
2019-02-08T16:21:53.988Z,3.28
2019-02-08T16:24:25.593Z,3.24
2019-02-08T16:26:57.324Z,3.23
2019-02-08T16:29:28.999Z,3.09
2019-02-08T16:32:00.775Z,3.01
2019-02-08T16:34:32.817Z,2.98
2019-02-08T16:37:04.652Z,3.04
2019-02-08T16:39:36.132Z,2.98
2019-02-08T16:42:07.855Z,2.83
2019-02-08T16:44:39.863Z,2.73
2019-02-08T16:47:11.653Z,2.76
2019-02-08T16:49:43.317Z,2.64
2019-02-08T16:52:14.709Z,2.57
2019-02-08T16:54:47.189Z,2.61
2019-02-08T16:57:19.057Z,2.67
2019-02-08T16:59:50.862Z,2.60
2019-02-08T17:02:22.500Z,2.61
2019-02-08T17:04:54.347Z,2.71
2019-02-08T17:07:26.004Z,2.74
2019-02-08T17:09:57.573Z,2.71
2019-02-08T17:12:29.270Z,2.63
2019-02-08T17:15:00.679Z,2.63
2019-02-08T17:17:32.437Z,2.75
2019-02-08T17:20:05.550Z,2.75
2019-02-08T17:22:37.050Z,2.80
2019-02-08T17:25:08.619Z,2.74
2019-02-08T17:27:40.088Z,2.74
2019-02-08T17:30:14.216Z,2.71
2019-02-08T17:32:46.048Z,2.62
2019-02-08T17:35:18.452Z,2.62
2019-02-08T17:37:50.216Z,2.76
2019-02-08T17:40:24.082Z,2.77
2019-02-08T17:42:55.851Z,2.78
2019-02-08T17:45:27.507Z,2.88
2019-02-08T17:48:00.771Z,2.69
2019-02-08T17:50:32.387Z,2.86
2019-02-08T17:53:04.409Z,2.88
2019-02-08T17:55:36.205Z,2.75
2019-02-08T17:58:08.075Z,2.86
2019-02-08T18:01:00.443Z,2.82
2019-02-08T18:03:32.212Z,2.76
2019-02-08T18:06:03.636Z,2.61
2019-02-08T18:08:35.140Z,2.72
2019-02-08T18:11:06.648Z,2.64
2019-02-08T18:13:38.019Z,2.82
2019-02-08T18:16:09.463Z,2.72
2019-02-08T18:18:41.014Z,2.65
2019-02-08T18:21:13.139Z,2.71
2019-02-08T18:23:44.679Z,2.66
2019-02-08T18:26:15.917Z,2.66
2019-02-08T18:28:47.313Z,2.70
2019-02-08T18:31:18.567Z,2.75
2019-02-08T18:33:49.858Z,2.64
2019-02-08T18:36:21.210Z,2.69
2019-02-08T18:38:52.541Z,2.81
2019-02-08T18:41:24.111Z,2.82
2019-02-08T18:43:55.666Z,2.95
2019-02-08T18:46:27.351Z,2.86
2019-02-08T18:48:59.047Z,2.90
2019-02-08T18:51:30.371Z,2.89
2019-02-08T18:54:01.744Z,3.01
2019-02-08T18:56:33.127Z,2.86
2019-02-08T18:59:04.509Z,2.94
2019-02-08T19:01:35.856Z,2.99
2019-02-08T19:04:07.391Z,2.79
2019-02-08T19:06:39.079Z,2.68
2019-02-08T19:09:10.814Z,2.69
2019-02-08T19:11:43.038Z,2.88
2019-02-08T19:14:14.875Z,2.94
2019-02-08T19:16:46.679Z,2.81
2019-02-08T19:19:19.734Z,2.94
2019-02-08T19:21:51.298Z,2.97
2019-02-08T19:24:23.014Z,2.95
2019-02-08T19:26:54.395Z,2.76
2019-02-08T19:29:26.021Z,2.69
2019-02-08T19:31:57.477Z,2.74
2019-02-08T19:34:29.060Z,2.78
2019-02-08T19:37:00.788Z,2.77
2019-02-08T19:39:32.754Z,2.82
2019-02-08T19:42:04.531Z,2.92
2019-02-08T19:44:36.200Z,2.95
2019-02-08T19:47:07.678Z,2.83
2019-02-08T19:49:39.064Z,2.74
2019-02-08T19:52:10.306Z,2.76
2019-02-08T19:54:41.645Z,2.60
2019-02-08T19:57:13.381Z,2.60
2019-02-08T19:59:44.710Z,2.51
2019-02-08T20:02:16.465Z,2.62
2019-02-08T20:04:48.118Z,2.63
2019-02-08T20:07:19.488Z,2.55
2019-02-08T20:09:51.048Z,2.64
2019-02-08T20:12:22.449Z,2.77
2019-02-08T20:14:54.842Z,2.80
2019-02-08T20:17:26.601Z,2.85
2019-02-08T20:19:58.143Z,2.78
2019-02-08T20:22:29.656Z,2.86
2019-02-08T20:25:00.886Z,2.89
2019-02-08T20:27:32.650Z,2.78
2019-02-08T20:30:05.399Z,2.86
2019-02-08T20:32:37.138Z,2.86
2019-02-08T20:35:10.834Z,2.76
2019-02-08T20:37:42.440Z,2.89
2019-02-08T20:40:16.355Z,2.74
2019-02-08T20:42:48.189Z,2.80
2019-02-08T20:45:22.134Z,2.66
2019-02-08T20:47:53.975Z,2.61
2019-02-08T20:50:26.289Z,2.66
2019-02-08T20:52:58.913Z,2.67
2019-02-08T20:55:31.291Z,2.73
2019-02-08T20:58:03.495Z,2.79
2019-02-08T21:00:39.268Z,2.85
2019-02-08T21:03:15.312Z,2.70
2019-02-08T21:05:48.263Z,2.70
2019-02-08T21:08:21.307Z,2.56
2019-02-08T21:10:52.653Z,2.63
2019-02-08T21:13:24.033Z,2.58
2019-02-08T21:15:55.657Z,2.53
2019-02-08T21:18:27.280Z,2.55
2019-02-08T21:20:58.894Z,2.52
2019-02-08T21:23:30.388Z,2.47
2019-02-08T21:26:02.029Z,2.57
2019-02-08T21:28:34.056Z,2.64
2019-02-08T21:31:05.673Z,2.58
2019-02-08T21:33:37.152Z,2.56
2019-02-08T21:36:08.587Z,2.44
2019-02-08T21:38:40.119Z,2.40
2019-02-08T21:41:11.456Z,2.36
2019-02-08T21:43:43.000Z,2.41
2019-02-08T21:46:14.997Z,2.37
2019-02-08T21:48:46.454Z,2.52
2019-02-08T21:51:17.766Z,2.57
2019-02-08T21:53:49.334Z,2.58
2019-02-08T21:56:20.989Z,2.63
2019-02-08T21:58:52.652Z,2.64
2019-02-08T22:01:24.580Z,2.75
2019-02-08T22:03:56.125Z,2.75
2019-02-08T22:06:27.644Z,2.81
2019-02-08T22:08:59.342Z,2.69
2019-02-08T22:11:32.432Z,2.69
2019-02-08T22:14:04.140Z,2.84
2019-02-08T22:16:35.772Z,2.86
2019-02-08T22:19:07.034Z,2.88
2019-02-08T22:21:38.742Z,2.82
2019-02-08T22:24:10.232Z,2.78
2019-02-08T22:26:42.064Z,2.77
2019-02-08T22:29:14.338Z,2.79
2019-02-08T22:31:46.048Z,2.72
2019-02-08T22:34:17.336Z,2.65
2019-02-08T22:36:48.748Z,2.70
2019-02-08T22:39:20.184Z,2.83
2019-02-08T22:41:51.717Z,2.75
2019-02-08T22:44:23.332Z,2.89
2019-02-08T22:46:54.925Z,2.68
2019-02-08T22:49:26.242Z,2.64
2019-02-08T22:51:57.704Z,2.62
2019-02-08T22:54:29.305Z,2.57
2019-02-08T22:57:00.526Z,2.59
2019-02-08T22:59:32.740Z,2.57
2019-02-08T23:02:06.031Z,2.44
2019-02-08T23:04:37.445Z,2.45
2019-02-08T23:07:09.359Z,2.42
2019-02-08T23:09:40.673Z,2.52
2019-02-08T23:12:12.448Z,2.46
2019-02-08T23:14:44.195Z,2.38
2019-02-08T23:17:15.662Z,2.42
2019-02-08T23:19:47.092Z,2.37
2019-02-08T23:22:18.725Z,2.28
2019-02-08T23:24:50.347Z,2.26
2019-02-08T23:27:21.632Z,2.32
2019-02-08T23:29:53.277Z,2.28
2019-02-08T23:32:24.934Z,2.19
2019-02-08T23:34:56.695Z,2.05
2019-02-08T23:37:28.328Z,2.15
2019-02-08T23:39:59.956Z,2.13
2019-02-08T23:42:31.266Z,2.19
2019-02-08T23:45:02.858Z,2.12
2019-02-08T23:47:34.372Z,2.17
2019-02-08T23:50:06.945Z,2.04
2019-02-08T23:52:38.544Z,2.00
2019-02-08T23:55:10.310Z,2.07
2019-02-08T23:57:41.906Z,2.18
